sensor_id;sensor_type;location;lat;lon;timestamp;pressure;altitude;pressure_sealevel;temperature;humidity
23953;BME280;12163;49.316;6.092;2023-05-02T00:00:56;99674.66;;;12.33;71.04
23953;BME280;12163;49.316;6.092;2023-05-02T00:03:24;99677.38;;;12.33;71.65
23953;BME280;12163;49.316;6.092;2023-05-02T00:05:51;99677.69;;;12.32;71.70
23953;BME280;12163;49.316;6.092;2023-05-02T00:08:18;99677.47;;;12.28;71.11
23953;BME280;12163;49.316;6.092;2023-05-02T00:10:44;99681.84;;;12.24;71.93
23953;BME280;12163;49.316;6.092;2023-05-02T00:13:12;99675.38;;;12.20;72.22
23953;BME280;12163;49.316;6.092;2023-05-02T00:15:38;99687.63;;;12.18;71.95
23953;BME280;12163;49.316;6.092;2023-05-02T00:18:05;99687.91;;;12.16;72.27
23953;BME280;12163;49.316;6.092;2023-05-02T00:20:32;99684.47;;;12.11;72.59
23953;BME280;12163;49.316;6.092;2023-05-02T00:22:58;99680.72;;;12.07;72.76
23953;BME280;12163;49.316;6.092;2023-05-02T00:25:25;99689.16;;;12.05;73.10
23953;BME280;12163;49.316;6.092;2023-05-02T00:27:52;99684.84;;;12.04;72.46
23953;BME280;12163;49.316;6.092;2023-05-02T00:30:18;99690.75;;;12.06;72.48
23953;BME280;12163;49.316;6.092;2023-05-02T00:32:46;99687.53;;;12.04;72.79
23953;BME280;12163;49.316;6.092;2023-05-02T00:35:13;99687.03;;;12.02;72.65
23953;BME280;12163;49.316;6.092;2023-05-02T00:37:39;99684.91;;;11.99;73.44
23953;BME280;12163;49.316;6.092;2023-05-02T00:40:06;99690.88;;;11.96;73.10
23953;BME280;12163;49.316;6.092;2023-05-02T00:42:33;99691.44;;;11.93;73.37
23953;BME280;12163;49.316;6.092;2023-05-02T00:45:02;99693.66;;;11.91;73.22
23953;BME280;12163;49.316;6.092;2023-05-02T00:47:32;99685.25;;;11.93;73.21
23953;BME280;12163;49.316;6.092;2023-05-02T00:49:59;99687.97;;;11.93;73.15
23953;BME280;12163;49.316;6.092;2023-05-02T00:52:27;99693.66;;;11.91;73.51
23953;BME280;12163;49.316;6.092;2023-05-02T00:54:54;99698.53;;;11.89;73.11
23953;BME280;12163;49.316;6.092;2023-05-02T00:57:21;99690.44;;;11.89;73.70
23953;BME280;12163;49.316;6.092;2023-05-02T00:59:48;99698.03;;;11.87;73.97
23953;BME280;12163;49.316;6.092;2023-05-02T01:02:25;99692.09;;;11.85;74.03
23953;BME280;12163;49.316;6.092;2023-05-02T01:04:59;99693.22;;;11.84;74.34
23953;BME280;12163;49.316;6.092;2023-05-02T01:12:53;99689.16;;;11.82;74.06
23953;BME280;12163;49.316;6.092;2023-05-02T01:15:24;99675.66;;;11.82;73.89
23953;BME280;12163;49.316;6.092;2023-05-02T01:17:52;99678.66;;;11.80;74.08
23953;BME280;12163;49.316;6.092;2023-05-02T01:20:23;99688.38;;;11.81;74.69
23953;BME280;12163;49.316;6.092;2023-05-02T01:22:53;99678.66;;;11.80;74.32
23953;BME280;12163;49.316;6.092;2023-05-02T01:25:51;99685.16;;;11.79;74.63
23953;BME280;12163;49.316;6.092;2023-05-02T01:31:03;99692.19;;;11.80;74.32
23953;BME280;12163;49.316;6.092;2023-05-02T01:33:32;99703.56;;;11.77;74.75
23953;BME280;12163;49.316;6.092;2023-05-02T01:36:01;99692.81;;;11.73;74.59
23953;BME280;12163;49.316;6.092;2023-05-02T01:38:28;99706.09;;;11.69;74.18
23953;BME280;12163;49.316;6.092;2023-05-02T01:40:56;99716.09;;;11.69;74.49
23953;BME280;12163;49.316;6.092;2023-05-02T01:43:23;99715.06;;;11.65;75.10
23953;BME280;12163;49.316;6.092;2023-05-02T01:45:53;99717.25;;;11.63;74.87
23953;BME280;12163;49.316;6.092;2023-05-02T01:48:23;99723.25;;;11.60;74.96
23953;BME280;12163;49.316;6.092;2023-05-02T01:50:50;99723.81;;;11.57;75.14
23953;BME280;12163;49.316;6.092;2023-05-02T01:53:17;99731.13;;;11.56;75.54
23953;BME280;12163;49.316;6.092;2023-05-02T01:55:45;99728.69;;;11.55;75.36
23953;BME280;12163;49.316;6.092;2023-05-02T01:58:13;99735.16;;;11.54;75.19
23953;BME280;12163;49.316;6.092;2023-05-02T02:00:43;99735.16;;;11.54;75.26
23953;BME280;12163;49.316;6.092;2023-05-02T02:03:11;99745.16;;;11.53;75.51
23953;BME280;12163;49.316;6.092;2023-05-02T02:05:39;99751.94;;;11.51;75.15
23953;BME280;12163;49.316;6.092;2023-05-02T02:08:07;99755.72;;;11.50;75.21
23953;BME280;12163;49.316;6.092;2023-05-02T02:10:42;99762.22;;;11.49;75.66
23953;BME280;12163;49.316;6.092;2023-05-02T02:13:26;99766.03;;;11.48;75.10
23953;BME280;12163;49.316;6.092;2023-05-02T02:15:58;99769.81;;;11.47;75.47
23953;BME280;12163;49.316;6.092;2023-05-02T02:18:27;99779.31;;;11.44;75.46
23953;BME280;12163;49.316;6.092;2023-05-02T02:20:55;99770.41;;;11.44;75.66
23953;BME280;12163;49.316;6.092;2023-05-02T02:23:25;99776.63;;;11.44;75.50
23953;BME280;12163;49.316;6.092;2023-05-02T02:25:54;99780.13;;;11.45;76.43
23953;BME280;12163;49.316;6.092;2023-05-02T02:28:22;99770.41;;;11.44;75.64
23953;BME280;12163;49.316;6.092;2023-05-02T02:30:49;99778.50;;;11.44;75.79
23953;BME280;12163;49.316;6.092;2023-05-02T02:33:16;99775.53;;;11.45;75.70
23953;BME280;12163;49.316;6.092;2023-05-02T02:35:48;99774.72;;;11.45;75.68
23953;BME280;12163;49.316;6.092;2023-05-02T02:38:59;99775.81;;;11.44;75.51
23953;BME280;12163;49.316;6.092;2023-05-02T02:41:27;99776.06;;;11.42;75.80
23953;BME280;12163;49.316;6.092;2023-05-02T02:44:03;99777.97;;;11.42;75.47
23953;BME280;12163;49.316;6.092;2023-05-02T02:46:49;99782.41;;;11.33;75.42
23953;BME280;12163;49.316;6.092;2023-05-02T02:52:08;99795.47;;;11.21;75.43
23953;BME280;12163;49.316;6.092;2023-05-02T02:54:44;99797.91;;;11.17;75.22
23953;BME280;12163;49.316;6.092;2023-05-02T03:00:07;99809.66;;;11.03;75.89
23953;BME280;12163;49.316;6.092;2023-05-02T03:02:37;99815.09;;;10.98;75.83
23953;BME280;12163;49.316;6.092;2023-05-02T03:05:08;99822.97;;;10.89;76.24
23953;BME280;12163;49.316;6.092;2023-05-02T03:07:35;99828.16;;;10.81;76.20
23953;BME280;12163;49.316;6.092;2023-05-02T03:10:03;99832.50;;;10.77;76.75
23953;BME280;12163;49.316;6.092;2023-05-02T03:12:30;99838.47;;;10.74;76.47
23953;BME280;12163;49.316;6.092;2023-05-02T03:17:50;99840.00;;;10.85;78.33
23953;BME280;12163;49.316;6.092;2023-05-02T03:20:17;99852.94;;;10.93;78.08
23953;BME280;12163;49.316;6.092;2023-05-02T03:22:44;99852.06;;;10.97;77.38
23953;BME280;12163;49.316;6.092;2023-05-02T03:25:11;99848.28;;;10.98;77.33
23953;BME280;12163;49.316;6.092;2023-05-02T03:27:38;99841.00;;;10.99;77.57
23953;BME280;12163;49.316;6.092;2023-05-02T03:30:05;99849.63;;;11.01;77.88
23953;BME280;12163;49.316;6.092;2023-05-02T03:32:32;99851.75;;;11.04;77.60
23953;BME280;12163;49.316;6.092;2023-05-02T03:34:58;99857.69;;;11.06;77.71
23953;BME280;12163;49.316;6.092;2023-05-02T03:37:25;99850.13;;;11.08;77.94
23953;BME280;12163;49.316;6.092;2023-05-02T03:39:52;99858.19;;;11.13;77.01
23953;BME280;12163;49.316;6.092;2023-05-02T03:42:18;99856.03;;;11.15;77.20
23953;BME280;12163;49.316;6.092;2023-05-02T03:44:45;99861.13;;;11.16;77.52
23953;BME280;12163;49.316;6.092;2023-05-02T03:47:11;99854.88;;;11.21;77.37
23953;BME280;12163;49.316;6.092;2023-05-02T03:49:39;99858.13;;;11.23;77.30
23953;BME280;12163;49.316;6.092;2023-05-02T03:52:05;99869.16;;;11.26;76.88
23953;BME280;12163;49.316;6.092;2023-05-02T03:54:32;99859.41;;;11.30;76.96
23953;BME280;12163;49.316;6.092;2023-05-02T03:56:59;99863.47;;;11.33;76.22
23953;BME280;12163;49.316;6.092;2023-05-02T03:59:26;99864.50;;;11.37;76.75
23953;BME280;12163;49.316;6.092;2023-05-02T04:01:52;99860.13;;;11.41;76.24
23953;BME280;12163;49.316;6.092;2023-05-02T04:04:19;99854.16;;;11.44;76.06
23953;BME280;12163;49.316;6.092;2023-05-02T04:06:46;99851.97;;;11.46;76.12
23953;BME280;12163;49.316;6.092;2023-05-02T04:09:12;99853.59;;;11.47;75.64
23953;BME280;12163;49.316;6.092;2023-05-02T04:11:39;99857.97;;;11.43;75.99
23953;BME280;12163;49.316;6.092;2023-05-02T04:14:07;99852.06;;;11.36;75.35
23953;BME280;12163;49.316;6.092;2023-05-02T04:16:33;99847.00;;;11.29;75.41
23953;BME280;12163;49.316;6.092;2023-05-02T04:19:00;99847.31;;;11.23;76.36
23953;BME280;12163;49.316;6.092;2023-05-02T04:21:27;99852.22;;;11.16;75.58
23953;BME280;12163;49.316;6.092;2023-05-02T04:23:53;99850.13;;;11.08;75.89
23953;BME280;12163;49.316;6.092;2023-05-02T04:26:20;99851.25;;;11.02;76.64
23953;BME280;12163;49.316;6.092;2023-05-02T04:28:47;99854.53;;;10.94;76.04
23953;BME280;12163;49.316;6.092;2023-05-02T04:31:13;99850.28;;;10.88;77.06
23953;BME280;12163;49.316;6.092;2023-05-02T04:33:40;99860.56;;;10.81;76.98
23953;BME280;12163;49.316;6.092;2023-05-02T04:36:08;99850.88;;;10.75;76.76
23953;BME280;12163;49.316;6.092;2023-05-02T04:38:35;99866.81;;;10.71;77.10
23953;BME280;12163;49.316;6.092;2023-05-02T04:41:02;99871.41;;;10.71;77.47
23953;BME280;12163;49.316;6.092;2023-05-02T04:43:34;99872.22;;;10.71;77.25
23953;BME280;12163;49.316;6.092;2023-05-02T04:46:01;99879.00;;;10.69;77.44
23953;BME280;12163;49.316;6.092;2023-05-02T04:48:28;99882.25;;;10.66;77.90
23953;BME280;12163;49.316;6.092;2023-05-02T04:50:55;99886.56;;;10.67;77.51
23953;BME280;12163;49.316;6.092;2023-05-02T04:53:22;99881.34;;;10.80;78.29
23953;BME280;12163;49.316;6.092;2023-05-02T04:55:49;99883.47;;;11.27;78.39
23953;BME280;12163;49.316;6.092;2023-05-02T04:58:15;99883.13;;;11.72;78.03
23953;BME280;12163;49.316;6.092;2023-05-02T05:00:42;99888.16;;;12.11;76.88
23953;BME280;12163;49.316;6.092;2023-05-02T05:03:09;99890.00;;;12.39;75.85
23953;BME280;12163;49.316;6.092;2023-05-02T05:05:36;99888.63;;;12.65;74.75
23953;BME280;12163;49.316;6.092;2023-05-02T05:08:03;99894.25;;;12.87;73.70
23953;BME280;12163;49.316;6.092;2023-05-02T05:10:29;99888.31;;;13.09;73.54
23953;BME280;12163;49.316;6.092;2023-05-02T05:12:56;99890.56;;;13.20;72.46
23953;BME280;12163;49.316;6.092;2023-05-02T05:15:23;99890.41;;;13.30;71.50
23953;BME280;12163;49.316;6.092;2023-05-02T05:17:51;99900.00;;;13.41;71.24
23953;BME280;12163;49.316;6.092;2023-05-02T05:20:18;99907.56;;;13.44;70.34
23953;BME280;12163;49.316;6.092;2023-05-02T05:22:45;99908.94;;;13.42;69.65
23953;BME280;12163;49.316;6.092;2023-05-02T05:25:11;99918.56;;;13.34;69.69
23953;BME280;12163;49.316;6.092;2023-05-02T05:27:38;99911.09;;;13.45;69.71
23953;BME280;12163;49.316;6.092;2023-05-02T05:30:05;99918.69;;;13.61;70.24
23953;BME280;12163;49.316;6.092;2023-05-02T05:32:32;99920.56;;;13.79;69.55
23953;BME280;12163;49.316;6.092;2023-05-02T05:34:59;99922.97;;;13.94;68.82
23953;BME280;12163;49.316;6.092;2023-05-02T05:37:26;99928.06;;;14.14;68.18
23953;BME280;12163;49.316;6.092;2023-05-02T05:39:53;99920.06;;;14.36;67.31
23953;BME280;12163;49.316;6.092;2023-05-02T05:42:19;99927.00;;;14.42;66.08
23953;BME280;12163;49.316;6.092;2023-05-02T05:44:46;99932.38;;;14.47;66.14
23953;BME280;12163;49.316;6.092;2023-05-02T05:47:18;99937.09;;;14.55;65.56
23953;BME280;12163;49.316;6.092;2023-05-02T05:49:45;99943.13;;;14.65;65.43
23953;BME280;12163;49.316;6.092;2023-05-02T05:52:11;99946.44;;;14.76;65.20
23953;BME280;12163;49.316;6.092;2023-05-02T05:54:38;99948.66;;;14.74;64.54
23953;BME280;12163;49.316;6.092;2023-05-02T05:57:04;99953.88;;;14.70;64.29
23953;BME280;12163;49.316;6.092;2023-05-02T05:59:34;99957.53;;;14.66;64.74
23953;BME280;12163;49.316;6.092;2023-05-02T06:02:01;99961.53;;;14.55;64.45
23953;BME280;12163;49.316;6.092;2023-05-02T06:04:29;99969.16;;;14.26;64.28
23953;BME280;12163;49.316;6.092;2023-05-02T06:06:56;99967.94;;;14.00;64.88
23953;BME280;12163;49.316;6.092;2023-05-02T06:09:22;99975.91;;;13.78;66.00
23953;BME280;12163;49.316;6.092;2023-05-02T06:11:49;99984.84;;;13.60;66.58
23953;BME280;12163;49.316;6.092;2023-05-02T06:14:16;99978.56;;;13.46;66.84
23953;BME280;12163;49.316;6.092;2023-05-02T06:16:42;99990.34;;;13.37;67.01
23953;BME280;12163;49.316;6.092;2023-05-02T06:19:09;99993.47;;;13.25;67.84
23953;BME280;12163;49.316;6.092;2023-05-02T06:21:36;99993.78;;;13.24;67.93
23953;BME280;12163;49.316;6.092;2023-05-02T06:24:03;99990.78;;;13.25;68.39
23953;BME280;12163;49.316;6.092;2023-05-02T06:26:30;99987.72;;;13.32;68.07
23953;BME280;12163;49.316;6.092;2023-05-02T06:28:56;99996.06;;;13.35;68.11
23953;BME280;12163;49.316;6.092;2023-05-02T06:31:23;100000.91;;;13.38;67.87
23953;BME280;12163;49.316;6.092;2023-05-02T06:33:50;100001.09;;;13.42;67.44
23953;BME280;12163;49.316;6.092;2023-05-02T06:36:17;100009.78;;;13.44;67.64
23953;BME280;12163;49.316;6.092;2023-05-02T06:38:44;100016.00;;;13.44;67.18
23953;BME280;12163;49.316;6.092;2023-05-02T06:41:14;100016.00;;;13.44;67.20
23953;BME280;12163;49.316;6.092;2023-05-02T06:43:43;100020.75;;;13.52;67.62
23953;BME280;12163;49.316;6.092;2023-05-02T06:46:10;100023.34;;;13.62;67.28
23953;BME280;12163;49.316;6.092;2023-05-02T06:48:36;100016.66;;;13.73;67.33
23953;BME280;12163;49.316;6.092;2023-05-02T06:51:03;100022.22;;;13.81;66.89
23953;BME280;12163;49.316;6.092;2023-05-02T06:53:30;100025.66;;;13.87;66.47
23953;BME280;12163;49.316;6.092;2023-05-02T06:55:58;100031.22;;;13.95;66.14
23953;BME280;12163;49.316;6.092;2023-05-02T06:58:25;100019.91;;;14.07;66.35
23953;BME280;12163;49.316;6.092;2023-05-02T07:00:51;100025.75;;;14.14;64.39
23953;BME280;12163;49.316;6.092;2023-05-02T07:03:18;100031.19;;;14.14;63.27
23953;BME280;12163;49.316;6.092;2023-05-02T07:05:45;100029.75;;;14.21;63.91
23953;BME280;12163;49.316;6.092;2023-05-02T07:08:11;100037.28;;;14.24;62.70
23953;BME280;12163;49.316;6.092;2023-05-02T07:10:38;100042.53;;;14.21;61.53
23953;BME280;12163;49.316;6.092;2023-05-02T07:13:04;100033.41;;;14.12;61.77
23953;BME280;12163;49.316;6.092;2023-05-02T07:15:31;100051.38;;;14.08;61.89
23953;BME280;12163;49.316;6.092;2023-05-02T07:17:57;100053.22;;;14.12;62.42
23953;BME280;12163;49.316;6.092;2023-05-02T07:20:24;100047.38;;;14.24;62.29
23953;BME280;12163;49.316;6.092;2023-05-02T07:22:51;100052.09;;;14.32;61.68
23953;BME280;12163;49.316;6.092;2023-05-02T07:25:17;100053.63;;;14.38;61.70
23953;BME280;12163;49.316;6.092;2023-05-02T07:27:44;100059.56;;;14.40;60.95
23953;BME280;12163;49.316;6.092;2023-05-02T07:30:11;100050.44;;;14.49;60.51
23953;BME280;12163;49.316;6.092;2023-05-02T07:32:38;100054.00;;;14.63;59.78
23953;BME280;12163;49.316;6.092;2023-05-02T07:35:05;100058.84;;;14.80;59.65
23953;BME280;12163;49.316;6.092;2023-05-02T07:37:33;100059.66;;;14.94;59.55
23953;BME280;12163;49.316;6.092;2023-05-02T07:40:00;100068.44;;;15.04;59.39
23953;BME280;12163;49.316;6.092;2023-05-02T07:42:29;100064.50;;;14.97;58.62
23953;BME280;12163;49.316;6.092;2023-05-02T07:44:55;100062.38;;;14.94;58.76
23953;BME280;12163;49.316;6.092;2023-05-02T07:47:22;100068.84;;;14.98;58.47
23953;BME280;12163;49.316;6.092;2023-05-02T07:49:52;100064.72;;;15.00;58.66
23953;BME280;12163;49.316;6.092;2023-05-02T07:52:19;100063.78;;;15.05;58.31
23953;BME280;12163;49.316;6.092;2023-05-02T07:54:49;100074.06;;;15.08;58.25
23953;BME280;12163;49.316;6.092;2023-05-02T07:57:17;100071.03;;;15.09;58.07
23953;BME280;12163;49.316;6.092;2023-05-02T07:59:44;100072.44;;;15.07;58.20
23953;BME280;12163;49.316;6.092;2023-05-02T08:02:11;100078.09;;;15.10;58.12
23953;BME280;12163;49.316;6.092;2023-05-02T08:04:39;100071.66;;;15.19;58.13
23953;BME280;12163;49.316;6.092;2023-05-02T08:07:06;100068.03;;;15.24;57.88
23953;BME280;12163;49.316;6.092;2023-05-02T08:09:33;100074.09;;;15.34;57.40
23953;BME280;12163;49.316;6.092;2023-05-02T08:11:59;100072.47;;;15.47;56.65
23953;BME280;12163;49.316;6.092;2023-05-02T08:14:28;100065.41;;;15.59;56.40
23953;BME280;12163;49.316;6.092;2023-05-02T08:16:55;100070.00;;;15.72;54.62
23953;BME280;12163;49.316;6.092;2023-05-02T08:19:21;100068.63;;;15.61;54.54
23953;BME280;12163;49.316;6.092;2023-05-02T08:21:48;100072.88;;;15.54;55.01
23953;BME280;12163;49.316;6.092;2023-05-02T08:24:15;100074.69;;;15.58;55.90
23953;BME280;12163;49.316;6.092;2023-05-02T08:26:41;100079.09;;;15.68;55.81
23953;BME280;12163;49.316;6.092;2023-05-02T08:29:08;100084.72;;;15.71;55.38
23953;BME280;12163;49.316;6.092;2023-05-02T08:31:38;100085.81;;;15.70;55.34
23953;BME280;12163;49.316;6.092;2023-05-02T08:34:05;100088.38;;;15.67;55.03
23953;BME280;12163;49.316;6.092;2023-05-02T08:36:32;100087.34;;;15.63;54.65
23953;BME280;12163;49.316;6.092;2023-05-02T08:38:59;100093.22;;;15.56;54.84
23953;BME280;12163;49.316;6.092;2023-05-02T08:41:27;100086.97;;;15.56;55.43
23953;BME280;12163;49.316;6.092;2023-05-02T08:43:54;100093.00;;;15.66;54.74
23953;BME280;12163;49.316;6.092;2023-05-02T08:46:22;100085.72;;;15.75;54.63
23953;BME280;12163;49.316;6.092;2023-05-02T08:48:49;100085.88;;;15.92;54.28
23953;BME280;12163;49.316;6.092;2023-05-02T08:51:16;100085.22;;;16.09;54.34
23953;BME280;12163;49.316;6.092;2023-05-02T08:53:45;100090.44;;;16.19;53.62
23953;BME280;12163;49.316;6.092;2023-05-02T08:56:11;100085.06;;;16.27;53.68
23953;BME280;12163;49.316;6.092;2023-05-02T08:58:39;100085.31;;;16.39;53.29
23953;BME280;12163;49.316;6.092;2023-05-02T09:01:12;100094.81;;;16.42;52.45
23953;BME280;12163;49.316;6.092;2023-05-02T09:03:42;100094.22;;;16.31;52.37
23953;BME280;12163;49.316;6.092;2023-05-02T09:06:14;100097.28;;;16.16;52.30
23953;BME280;12163;49.316;6.092;2023-05-02T09:08:43;100098.91;;;16.17;52.82
23953;BME280;12163;49.316;6.092;2023-05-02T09:11:11;100103.63;;;16.25;53.45
23953;BME280;12163;49.316;6.092;2023-05-02T09:13:40;100097.81;;;16.40;53.25
23953;BME280;12163;49.316;6.092;2023-05-02T09:18:43;100110.22;;;16.46;52.79
23953;BME280;12163;49.316;6.092;2023-05-02T09:21:15;100109.91;;;16.48;52.90
23953;BME280;12163;49.316;6.092;2023-05-02T09:23:50;100116.88;;;16.62;52.58
23953;BME280;12163;49.316;6.092;2023-05-02T09:26:22;100116.28;;;16.65;50.80
23953;BME280;12163;49.316;6.092;2023-05-02T09:28:51;100115.28;;;16.61;50.52
23953;BME280;12163;49.316;6.092;2023-05-02T09:31:20;100122.81;;;16.56;50.69
23953;BME280;12163;49.316;6.092;2023-05-02T09:34:11;100115.66;;;16.68;51.26
23953;BME280;12163;49.316;6.092;2023-05-02T09:36:46;100112.38;;;16.80;51.67
23953;BME280;12163;49.316;6.092;2023-05-02T09:39:14;100123.25;;;17.01;51.25
23953;BME280;12163;49.316;6.092;2023-05-02T09:41:45;100130.06;;;17.21;51.02
23953;BME280;12163;49.316;6.092;2023-05-02T09:44:36;100121.97;;;17.38;49.14
23953;BME280;12163;49.316;6.092;2023-05-02T09:47:02;100122.53;;;17.57;48.64
23953;BME280;12163;49.316;6.092;2023-05-02T09:52:13;100129.81;;;17.87;48.39
23953;BME280;12163;49.316;6.092;2023-05-02T09:54:41;100128.38;;;17.81;48.16
23953;BME280;12163;49.316;6.092;2023-05-02T09:57:08;100125.78;;;17.67;48.60
23953;BME280;12163;49.316;6.092;2023-05-02T09:59:38;100134.88;;;17.54;48.30
23953;BME280;12163;49.316;6.092;2023-05-02T10:02:05;100130.19;;;17.46;48.12
23953;BME280;12163;49.316;6.092;2023-05-02T10:04:35;100132.06;;;17.37;47.69
23953;BME280;12163;49.316;6.092;2023-05-02T10:07:02;100140.19;;;17.20;47.43
23953;BME280;12163;49.316;6.092;2023-05-02T10:09:31;100131.31;;;17.15;48.31
23953;BME280;12163;49.316;6.092;2023-05-02T10:12:01;100133.13;;;17.28;48.79
23953;BME280;12163;49.316;6.092;2023-05-02T10:14:30;100128.06;;;17.35;47.47
23953;BME280;12163;49.316;6.092;2023-05-02T10:17:08;100125.34;;;17.35;47.34
23953;BME280;12163;49.316;6.092;2023-05-02T10:19:47;100125.19;;;17.40;47.08
23953;BME280;12163;49.316;6.092;2023-05-02T10:22:18;100129.34;;;17.37;47.59
23953;BME280;12163;49.316;6.092;2023-05-02T10:24:47;100127.81;;;17.53;48.22
23953;BME280;12163;49.316;6.092;2023-05-02T10:27:14;100129.13;;;17.73;47.90
23953;BME280;12163;49.316;6.092;2023-05-02T10:29:41;100133.00;;;17.80;47.22
23953;BME280;12163;49.316;6.092;2023-05-02T10:32:08;100129.66;;;17.92;46.46
23953;BME280;12163;49.316;6.092;2023-05-02T10:34:37;100128.06;;;17.99;46.43
23953;BME280;12163;49.316;6.092;2023-05-02T10:37:05;100134.50;;;18.03;46.30
23953;BME280;12163;49.316;6.092;2023-05-02T10:39:32;100128.22;;;18.20;47.06
23953;BME280;12163;49.316;6.092;2023-05-02T10:42:01;100121.19;;;18.36;46.32
23953;BME280;12163;49.316;6.092;2023-05-02T10:44:39;100116.84;;;18.52;46.73
23953;BME280;12163;49.316;6.092;2023-05-02T10:47:25;100104.59;;;18.83;46.32
23953;BME280;12163;49.316;6.092;2023-05-02T10:49:53;100109.47;;;19.15;44.71
23953;BME280;12163;49.316;6.092;2023-05-02T11:00:24;100084.06;;;20.01;43.12
23953;BME280;12163;49.316;6.092;2023-05-02T11:02:51;100094.31;;;19.84;42.82
23953;BME280;12163;49.316;6.092;2023-05-02T11:05:18;100092.94;;;19.69;43.24
23953;BME280;12163;49.316;6.092;2023-05-02T11:07:44;100090.31;;;19.81;42.96
23953;BME280;12163;49.316;6.092;2023-05-02T11:18:06;100073.94;;;20.34;41.72
23953;BME280;12163;49.316;6.092;2023-05-02T11:20:37;100078.84;;;20.61;40.76
23953;BME280;12163;49.316;6.092;2023-05-02T11:25:55;100072.91;;;20.59;40.04
23953;BME280;12163;49.316;6.092;2023-05-02T11:31:05;100068.34;;;20.63;40.42
23953;BME280;12163;49.316;6.092;2023-05-02T11:33:32;100065.03;;;20.57;40.94
23953;BME280;12163;49.316;6.092;2023-05-02T11:35:59;100061.69;;;20.52;39.69
23953;BME280;12163;49.316;6.092;2023-05-02T11:38:34;100060.31;;;20.26;40.64
23953;BME280;12163;49.316;6.092;2023-05-02T11:41:01;100061.38;;;19.92;41.47
23953;BME280;12163;49.316;6.092;2023-05-02T11:43:29;100068.72;;;19.59;42.38
23953;BME280;12163;49.316;6.092;2023-05-02T11:45:59;100076.75;;;19.35;42.17
23953;BME280;12163;49.316;6.092;2023-05-02T11:48:28;100076.16;;;19.21;42.76
23953;BME280;12163;49.316;6.092;2023-05-02T11:50:57;100073.59;;;19.16;42.55
23953;BME280;12163;49.316;6.092;2023-05-02T11:53:26;100077.44;;;19.15;43.16
23953;BME280;12163;49.316;6.092;2023-05-02T11:55:56;100081.31;;;19.14;42.97
23953;BME280;12163;49.316;6.092;2023-05-02T11:58:28;100070.22;;;19.11;42.85
23953;BME280;12163;49.316;6.092;2023-05-02T12:00:55;100072.09;;;19.27;43.01
23953;BME280;12163;49.316;6.092;2023-05-02T12:03:30;100062.63;;;19.74;42.16
23953;BME280;12163;49.316;6.092;2023-05-02T12:06:08;100068.03;;;20.12;41.22
23953;BME280;12163;49.316;6.092;2023-05-02T12:08:37;100063.97;;;20.50;40.21
23953;BME280;12163;49.316;6.092;2023-05-02T12:11:04;100063.75;;;20.87;39.50
23953;BME280;12163;49.316;6.092;2023-05-02T12:13:32;100063.31;;;21.09;39.14
23953;BME280;12163;49.316;6.092;2023-05-02T12:15:59;100063.00;;;21.11;39.07
23953;BME280;12163;49.316;6.092;2023-05-02T12:18:26;100067.34;;;21.12;38.66
23953;BME280;12163;49.316;6.092;2023-05-02T12:20:54;100067.88;;;21.17;38.72
23953;BME280;12163;49.316;6.092;2023-05-02T12:23:23;100068.69;;;21.06;38.35
23953;BME280;12163;49.316;6.092;2023-05-02T12:25:51;100074.94;;;20.94;38.69
23953;BME280;12163;49.316;6.092;2023-05-02T12:28:19;100081.28;;;20.74;37.83
23953;BME280;12163;49.316;6.092;2023-05-02T12:30:47;100078.91;;;20.52;39.11
23953;BME280;12163;49.316;6.092;2023-05-02T12:33:15;100068.78;;;20.53;39.23
23953;BME280;12163;49.316;6.092;2023-05-02T12:35:43;100079.53;;;20.58;39.20
23953;BME280;12163;49.316;6.092;2023-05-02T12:38:18;100074.50;;;20.60;38.90
23953;BME280;12163;49.316;6.092;2023-05-02T12:40:52;100081.19;;;20.50;39.00
23953;BME280;12163;49.316;6.092;2023-05-02T12:43:19;100076.22;;;20.32;39.04
23953;BME280;12163;49.316;6.092;2023-05-02T12:45:47;100082.66;;;20.16;39.57
23953;BME280;12163;49.316;6.092;2023-05-02T12:48:23;100072.63;;;20.20;40.54
23953;BME280;12163;49.316;6.092;2023-05-02T12:50:51;100078.72;;;20.25;40.79
23953;BME280;12163;49.316;6.092;2023-05-02T12:53:38;100083.91;;;20.18;40.94
23953;BME280;12163;49.316;6.092;2023-05-02T12:56:06;100077.50;;;20.14;41.10
23953;BME280;12163;49.316;6.092;2023-05-02T12:58:43;100091.94;;;20.03;41.09
23953;BME280;12163;49.316;6.092;2023-05-02T13:01:11;100090.78;;;19.83;40.40
23953;BME280;12163;49.316;6.092;2023-05-02T13:03:38;100090.00;;;19.74;40.26
23953;BME280;12163;49.316;6.092;2023-05-02T13:06:04;100087.63;;;19.73;40.71
23953;BME280;12163;49.316;6.092;2023-05-02T13:08:32;100090.63;;;19.80;40.67
23953;BME280;12163;49.316;6.092;2023-05-02T13:11:00;100092.19;;;19.89;40.78
23953;BME280;12163;49.316;6.092;2023-05-02T13:13:27;100097.03;;;19.84;40.36
23953;BME280;12163;49.316;6.092;2023-05-02T13:15:54;100093.88;;;19.73;40.83
23953;BME280;12163;49.316;6.092;2023-05-02T13:18:20;100096.47;;;19.78;41.23
23953;BME280;12163;49.316;6.092;2023-05-02T13:20:47;100099.16;;;20.07;40.74
23953;BME280;12163;49.316;6.092;2023-05-02T13:23:14;100085.16;;;20.41;39.72
23953;BME280;12163;49.316;6.092;2023-05-02T13:25:42;100094.53;;;20.93;39.12
23953;BME280;12163;49.316;6.092;2023-05-02T13:28:08;100089.28;;;21.48;38.24
23953;BME280;12163;49.316;6.092;2023-05-02T13:30:35;100079.91;;;21.73;38.16
23953;BME280;12163;49.316;6.092;2023-05-02T13:33:02;100081.25;;;21.91;37.38
23953;BME280;12163;49.316;6.092;2023-05-02T13:35:28;100084.06;;;21.79;37.40
23953;BME280;12163;49.316;6.092;2023-05-02T13:37:57;100087.94;;;21.54;37.32
23953;BME280;12163;49.316;6.092;2023-05-02T13:40:24;100092.94;;;21.28;38.40
23953;BME280;12163;49.316;6.092;2023-05-02T13:42:50;100079.78;;;21.09;38.24
23953;BME280;12163;49.316;6.092;2023-05-02T13:45:17;100091.41;;;20.94;38.97